Lorraine, Kansas
Current Conditions -  °F | °C
As of 10:15 AM on Sunday 25 Jan 2015 (Local Time) from KGBD Reporting Station
Clear Clear  
Wind Chill:   Ceiling: Unl
Heat Index:   Visibility: 10mi
Dew Point: -3°   Wind: 31mph
Humidity: 46%   Direction: 340°NNW
Pressure: 30.03"   Gusts: 41mph
Location:  38.57°N, 98.32°W
Report Text: KGBD 251615Z AUTO 34027G36KT 10SM CLR 08/M03 A3003 RMK AO1
Loading
Personal Weather Stations






























Interactive Weather Map New forecast layout! Learn more

10-Day Weather Forecast

Advertisements
Track Severe Weather on mobile